sensor_id;sensor_type;location;lat;lon;timestamp;temperature;humidity
2409;DHT22;8463;48.094;7.970;2023-05-24T00:01:28;16.20;1.00
2409;DHT22;8463;48.094;7.970;2023-05-24T00:03:55;16.30;1.00
2409;DHT22;8463;48.094;7.970;2023-05-24T00:06:26;16.40;1.00
2409;DHT22;8463;48.094;7.970;2023-05-24T00:08:53;16.40;1.00
2409;DHT22;8463;48.094;7.970;2023-05-24T00:11:19;16.40;1.00
2409;DHT22;8463;48.094;7.970;2023-05-24T00:13:46;16.50;1.00
2409;DHT22;8463;48.094;7.970;2023-05-24T00:16:12;16.50;1.00
2409;DHT22;8463;48.094;7.970;2023-05-24T00:18:38;16.40;1.00
2409;DHT22;8463;48.094;7.970;2023-05-24T00:21:06;16.50;1.00
2409;DHT22;8463;48.094;7.970;2023-05-24T00:23:33;16.40;1.00
2409;DHT22;8463;48.094;7.970;2023-05-24T00:25:59;16.40;1.00
2409;DHT22;8463;48.094;7.970;2023-05-24T00:28:26;16.40;1.00
2409;DHT22;8463;48.094;7.970;2023-05-24T00:30:51;16.40;1.00
2409;DHT22;8463;48.094;7.970;2023-05-24T00:33:17;16.40;1.00
2409;DHT22;8463;48.094;7.970;2023-05-24T00:35:45;16.50;1.00
2409;DHT22;8463;48.094;7.970;2023-05-24T00:38:11;16.40;1.00
2409;DHT22;8463;48.094;7.970;2023-05-24T00:40:38;16.40;1.00
2409;DHT22;8463;48.094;7.970;2023-05-24T00:43:04;16.40;1.00
2409;DHT22;8463;48.094;7.970;2023-05-24T00:45:29;16.40;1.00
2409;DHT22;8463;48.094;7.970;2023-05-24T00:47:55;16.40;1.00
2409;DHT22;8463;48.094;7.970;2023-05-24T00:50:22;16.30;1.00
2409;DHT22;8463;48.094;7.970;2023-05-24T00:52:50;16.30;1.00
2409;DHT22;8463;48.094;7.970;2023-05-24T00:55:16;16.30;1.00
2409;DHT22;8463;48.094;7.970;2023-05-24T00:57:42;16.10;1.00
2409;DHT22;8463;48.094;7.970;2023-05-24T01:00:08;15.80;1.00
2409;DHT22;8463;48.094;7.970;2023-05-24T01:02:36;15.50;1.00
2409;DHT22;8463;48.094;7.970;2023-05-24T01:05:02;15.60;1.00
2409;DHT22;8463;48.094;7.970;2023-05-24T01:08:09;15.40;1.00
2409;DHT22;8463;48.094;7.970;2023-05-24T01:11:03;15.00;1.00
2409;DHT22;8463;48.094;7.970;2023-05-24T01:13:39;15.00;1.00
2409;DHT22;8463;48.094;7.970;2023-05-24T01:16:22;14.90;1.00
2409;DHT22;8463;48.094;7.970;2023-05-24T01:19:06;14.80;1.00
2409;DHT22;8463;48.094;7.970;2023-05-24T01:22:08;14.60;1.00
2409;DHT22;8463;48.094;7.970;2023-05-24T01:27:33;14.40;1.00
2409;DHT22;8463;48.094;7.970;2023-05-24T01:30:03;14.40;1.00
2409;DHT22;8463;48.094;7.970;2023-05-24T01:32:29;14.30;1.00
2409;DHT22;8463;48.094;7.970;2023-05-24T01:34:55;14.30;1.00
2409;DHT22;8463;48.094;7.970;2023-05-24T01:37:21;14.20;1.00
2409;DHT22;8463;48.094;7.970;2023-05-24T01:39:47;14.30;1.00
2409;DHT22;8463;48.094;7.970;2023-05-24T01:42:33;14.30;1.00
2409;DHT22;8463;48.094;7.970;2023-05-24T01:45:16;14.40;1.00
2409;DHT22;8463;48.094;7.970;2023-05-24T01:48:23;14.50;1.00
2409;DHT22;8463;48.094;7.970;2023-05-24T01:50:57;14.50;1.00
2409;DHT22;8463;48.094;7.970;2023-05-24T01:53:25;14.40;1.00
2409;DHT22;8463;48.094;7.970;2023-05-24T01:56:01;14.50;1.00
2409;DHT22;8463;48.094;7.970;2023-05-24T01:58:29;14.50;1.00
2409;DHT22;8463;48.094;7.970;2023-05-24T02:00:56;14.50;1.00
2409;DHT22;8463;48.094;7.970;2023-05-24T02:03:22;14.40;1.00
2409;DHT22;8463;48.094;7.970;2023-05-24T02:05:50;14.40;1.00
2409;DHT22;8463;48.094;7.970;2023-05-24T02:08:16;14.40;1.00
2409;DHT22;8463;48.094;7.970;2023-05-24T02:10:43;14.40;1.00
2409;DHT22;8463;48.094;7.970;2023-05-24T02:13:08;14.40;1.00
2409;DHT22;8463;48.094;7.970;2023-05-24T02:15:34;14.50;1.00
2409;DHT22;8463;48.094;7.970;2023-05-24T02:18:00;14.50;1.00
2409;DHT22;8463;48.094;7.970;2023-05-24T02:20:27;14.50;1.00
2409;DHT22;8463;48.094;7.970;2023-05-24T02:23:04;14.60;1.00
2409;DHT22;8463;48.094;7.970;2023-05-24T02:25:30;14.30;1.00
2409;DHT22;8463;48.094;7.970;2023-05-24T02:27:57;14.30;1.00
2409;DHT22;8463;48.094;7.970;2023-05-24T02:30:26;14.50;1.00
2409;DHT22;8463;48.094;7.970;2023-05-24T02:32:52;14.40;1.00
2409;DHT22;8463;48.094;7.970;2023-05-24T02:35:18;14.40;1.00
2409;DHT22;8463;48.094;7.970;2023-05-24T02:37:43;14.30;1.00
2409;DHT22;8463;48.094;7.970;2023-05-24T02:40:09;14.30;1.00
2409;DHT22;8463;48.094;7.970;2023-05-24T02:42:35;14.30;1.00
2409;DHT22;8463;48.094;7.970;2023-05-24T02:45:01;14.20;1.00
2409;DHT22;8463;48.094;7.970;2023-05-24T02:47:27;14.20;1.00
2409;DHT22;8463;48.094;7.970;2023-05-24T02:49:53;14.20;1.00
2409;DHT22;8463;48.094;7.970;2023-05-24T02:52:19;14.10;1.00
2409;DHT22;8463;48.094;7.970;2023-05-24T02:54:51;14.10;1.00
2409;DHT22;8463;48.094;7.970;2023-05-24T02:57:17;14.10;1.00
2409;DHT22;8463;48.094;7.970;2023-05-24T02:59:43;14.10;1.00
2409;DHT22;8463;48.094;7.970;2023-05-24T03:02:08;13.90;1.00
2409;DHT22;8463;48.094;7.970;2023-05-24T03:04:34;13.70;1.00
2409;DHT22;8463;48.094;7.970;2023-05-24T03:07:00;13.60;1.00
2409;DHT22;8463;48.094;7.970;2023-05-24T03:09:28;13.50;1.00
2409;DHT22;8463;48.094;7.970;2023-05-24T03:11:53;13.50;1.00
2409;DHT22;8463;48.094;7.970;2023-05-24T03:14:20;13.50;1.00
2409;DHT22;8463;48.094;7.970;2023-05-24T03:16:48;13.50;1.00
2409;DHT22;8463;48.094;7.970;2023-05-24T03:19:14;13.40;1.00
2409;DHT22;8463;48.094;7.970;2023-05-24T03:21:44;13.40;1.00
2409;DHT22;8463;48.094;7.970;2023-05-24T03:24:12;13.40;1.00
2409;DHT22;8463;48.094;7.970;2023-05-24T03:26:39;13.30;1.00
2409;DHT22;8463;48.094;7.970;2023-05-24T03:29:05;13.30;1.00
2409;DHT22;8463;48.094;7.970;2023-05-24T03:31:31;13.50;1.00
2409;DHT22;8463;48.094;7.970;2023-05-24T03:33:57;13.50;1.00
2409;DHT22;8463;48.094;7.970;2023-05-24T03:36:22;13.50;1.00
2409;DHT22;8463;48.094;7.970;2023-05-24T03:38:50;13.60;1.00
2409;DHT22;8463;48.094;7.970;2023-05-24T03:41:16;13.80;1.00
2409;DHT22;8463;48.094;7.970;2023-05-24T03:43:41;14.00;1.00
2409;DHT22;8463;48.094;7.970;2023-05-24T03:46:07;14.10;1.00
2409;DHT22;8463;48.094;7.970;2023-05-24T03:48:33;14.10;1.00
2409;DHT22;8463;48.094;7.970;2023-05-24T03:50:58;14.10;1.00
2409;DHT22;8463;48.094;7.970;2023-05-24T03:53:24;13.90;1.00
2409;DHT22;8463;48.094;7.970;2023-05-24T03:55:50;13.80;1.00
2409;DHT22;8463;48.094;7.970;2023-05-24T03:58:16;13.80;1.00
2409;DHT22;8463;48.094;7.970;2023-05-24T04:00:42;13.80;1.00
2409;DHT22;8463;48.094;7.970;2023-05-24T04:03:07;13.70;1.00
2409;DHT22;8463;48.094;7.970;2023-05-24T04:05:33;13.60;1.00
2409;DHT22;8463;48.094;7.970;2023-05-24T04:08:00;13.60;1.00
2409;DHT22;8463;48.094;7.970;2023-05-24T04:10:25;13.60;1.00
2409;DHT22;8463;48.094;7.970;2023-05-24T04:12:51;13.60;1.00
2409;DHT22;8463;48.094;7.970;2023-05-24T04:15:20;13.50;1.00
2409;DHT22;8463;48.094;7.970;2023-05-24T04:17:47;13.40;1.00
2409;DHT22;8463;48.094;7.970;2023-05-24T04:20:21;13.40;1.00
2409;DHT22;8463;48.094;7.970;2023-05-24T04:22:50;13.40;1.00
2409;DHT22;8463;48.094;7.970;2023-05-24T04:25:16;13.40;1.00
2409;DHT22;8463;48.094;7.970;2023-05-24T04:27:42;13.50;1.00
2409;DHT22;8463;48.094;7.970;2023-05-24T04:30:09;13.60;1.00
2409;DHT22;8463;48.094;7.970;2023-05-24T04:32:35;13.60;1.00
2409;DHT22;8463;48.094;7.970;2023-05-24T04:35:04;13.50;1.00
2409;DHT22;8463;48.094;7.970;2023-05-24T04:37:29;13.60;1.00
2409;DHT22;8463;48.094;7.970;2023-05-24T04:39:56;13.60;1.00
2409;DHT22;8463;48.094;7.970;2023-05-24T04:42:29;13.60;1.00
2409;DHT22;8463;48.094;7.970;2023-05-24T04:44:56;13.50;1.00
2409;DHT22;8463;48.094;7.970;2023-05-24T04:47:22;13.50;1.00
2409;DHT22;8463;48.094;7.970;2023-05-24T04:49:51;13.80;1.00
2409;DHT22;8463;48.094;7.970;2023-05-24T04:52:17;14.20;1.00
2409;DHT22;8463;48.094;7.970;2023-05-24T04:54:43;14.50;1.00
2409;DHT22;8463;48.094;7.970;2023-05-24T04:57:08;14.40;1.00
2409;DHT22;8463;48.094;7.970;2023-05-24T04:59:34;14.70;1.00
2409;DHT22;8463;48.094;7.970;2023-05-24T05:02:00;14.70;1.00
2409;DHT22;8463;48.094;7.970;2023-05-24T05:04:26;14.70;1.00
2409;DHT22;8463;48.094;7.970;2023-05-24T05:06:52;14.70;1.00
2409;DHT22;8463;48.094;7.970;2023-05-24T05:09:17;14.50;1.00
2409;DHT22;8463;48.094;7.970;2023-05-24T05:11:45;14.50;1.00
2409;DHT22;8463;48.094;7.970;2023-05-24T05:14:11;14.60;1.00
2409;DHT22;8463;48.094;7.970;2023-05-24T05:16:41;14.60;1.00
2409;DHT22;8463;48.094;7.970;2023-05-24T05:19:10;14.80;1.00
2409;DHT22;8463;48.094;7.970;2023-05-24T05:21:36;15.00;1.00
2409;DHT22;8463;48.094;7.970;2023-05-24T05:24:04;15.10;1.00
2409;DHT22;8463;48.094;7.970;2023-05-24T05:26:30;15.30;1.00
2409;DHT22;8463;48.094;7.970;2023-05-24T05:28:56;15.30;1.00
2409;DHT22;8463;48.094;7.970;2023-05-24T05:31:26;15.40;1.00
2409;DHT22;8463;48.094;7.970;2023-05-24T05:33:51;15.40;1.00
2409;DHT22;8463;48.094;7.970;2023-05-24T05:36:17;15.40;1.00
2409;DHT22;8463;48.094;7.970;2023-05-24T05:38:43;15.20;1.00
2409;DHT22;8463;48.094;7.970;2023-05-24T05:41:09;15.10;1.00
2409;DHT22;8463;48.094;7.970;2023-05-24T05:43:38;15.20;1.00
2409;DHT22;8463;48.094;7.970;2023-05-24T05:46:04;15.10;1.00
2409;DHT22;8463;48.094;7.970;2023-05-24T05:48:29;15.40;1.00
2409;DHT22;8463;48.094;7.970;2023-05-24T05:50:58;15.50;1.00
2409;DHT22;8463;48.094;7.970;2023-05-24T05:53:23;15.40;1.00
2409;DHT22;8463;48.094;7.970;2023-05-24T05:55:49;15.10;1.00
2409;DHT22;8463;48.094;7.970;2023-05-24T05:58:15;14.80;1.00
2409;DHT22;8463;48.094;7.970;2023-05-24T06:00:40;14.90;1.00
2409;DHT22;8463;48.094;7.970;2023-05-24T06:03:06;14.80;1.00
2409;DHT22;8463;48.094;7.970;2023-05-24T06:05:32;14.80;1.00
2409;DHT22;8463;48.094;7.970;2023-05-24T06:07:57;14.90;1.00
2409;DHT22;8463;48.094;7.970;2023-05-24T06:10:23;14.90;1.00
2409;DHT22;8463;48.094;7.970;2023-05-24T06:12:49;14.00;1.00
2409;DHT22;8463;48.094;7.970;2023-05-24T06:15:14;14.00;1.00
2409;DHT22;8463;48.094;7.970;2023-05-24T06:17:40;14.00;1.00
2409;DHT22;8463;48.094;7.970;2023-05-24T06:20:10;13.80;1.00
2409;DHT22;8463;48.094;7.970;2023-05-24T06:22:41;13.60;1.00
2409;DHT22;8463;48.094;7.970;2023-05-24T06:25:07;13.50;1.00
2409;DHT22;8463;48.094;7.970;2023-05-24T06:27:33;13.60;1.00
2409;DHT22;8463;48.094;7.970;2023-05-24T06:30:02;13.50;1.00
2409;DHT22;8463;48.094;7.970;2023-05-24T06:32:28;13.50;1.00
2409;DHT22;8463;48.094;7.970;2023-05-24T06:34:53;13.70;1.00
2409;DHT22;8463;48.094;7.970;2023-05-24T06:37:20;13.70;1.00
2409;DHT22;8463;48.094;7.970;2023-05-24T06:39:49;13.70;1.00
2409;DHT22;8463;48.094;7.970;2023-05-24T06:42:17;13.80;1.00
2409;DHT22;8463;48.094;7.970;2023-05-24T06:44:43;13.90;1.00
2409;DHT22;8463;48.094;7.970;2023-05-24T06:47:08;14.10;1.00
2409;DHT22;8463;48.094;7.970;2023-05-24T06:49:34;14.10;1.00
2409;DHT22;8463;48.094;7.970;2023-05-24T06:52:01;14.50;1.00
2409;DHT22;8463;48.094;7.970;2023-05-24T06:54:27;14.40;1.00
2409;DHT22;8463;48.094;7.970;2023-05-24T06:56:53;14.40;1.00
2409;DHT22;8463;48.094;7.970;2023-05-24T06:59:21;14.40;1.00
2409;DHT22;8463;48.094;7.970;2023-05-24T07:01:47;14.60;1.00
2409;DHT22;8463;48.094;7.970;2023-05-24T07:04:18;14.80;1.00
2409;DHT22;8463;48.094;7.970;2023-05-24T07:06:46;14.80;1.00
2409;DHT22;8463;48.094;7.970;2023-05-24T07:09:11;15.10;1.00
2409;DHT22;8463;48.094;7.970;2023-05-24T07:11:37;15.30;1.00
2409;DHT22;8463;48.094;7.970;2023-05-24T07:14:03;15.20;1.00
2409;DHT22;8463;48.094;7.970;2023-05-24T07:16:31;15.40;1.00
2409;DHT22;8463;48.094;7.970;2023-05-24T07:18:56;15.40;1.00
2409;DHT22;8463;48.094;7.970;2023-05-24T07:21:23;15.30;1.00
2409;DHT22;8463;48.094;7.970;2023-05-24T07:23:50;15.30;1.00
2409;DHT22;8463;48.094;7.970;2023-05-24T07:26:16;15.10;1.00
2409;DHT22;8463;48.094;7.970;2023-05-24T07:28:47;15.00;1.00
2409;DHT22;8463;48.094;7.970;2023-05-24T07:31:13;14.90;1.00
2409;DHT22;8463;48.094;7.970;2023-05-24T07:33:41;14.80;1.00
2409;DHT22;8463;48.094;7.970;2023-05-24T07:36:07;14.90;1.00
2409;DHT22;8463;48.094;7.970;2023-05-24T07:38:34;15.00;1.00
2409;DHT22;8463;48.094;7.970;2023-05-24T07:41:01;14.80;1.00
2409;DHT22;8463;48.094;7.970;2023-05-24T07:43:31;14.70;1.00
2409;DHT22;8463;48.094;7.970;2023-05-24T07:45:56;14.60;1.00
2409;DHT22;8463;48.094;7.970;2023-05-24T07:48:22;14.50;1.00
2409;DHT22;8463;48.094;7.970;2023-05-24T07:50:49;14.40;1.00
2409;DHT22;8463;48.094;7.970;2023-05-24T07:53:18;14.50;1.00
2409;DHT22;8463;48.094;7.970;2023-05-24T07:55:45;14.50;1.00
2409;DHT22;8463;48.094;7.970;2023-05-24T07:58:11;14.50;1.00
2409;DHT22;8463;48.094;7.970;2023-05-24T08:00:42;14.80;1.00
2409;DHT22;8463;48.094;7.970;2023-05-24T08:03:08;14.80;1.00
2409;DHT22;8463;48.094;7.970;2023-05-24T08:05:37;15.00;1.00
2409;DHT22;8463;48.094;7.970;2023-05-24T08:08:03;14.80;1.00
2409;DHT22;8463;48.094;7.970;2023-05-24T08:10:29;15.00;1.00
2409;DHT22;8463;48.094;7.970;2023-05-24T08:12:55;14.90;1.00
2409;DHT22;8463;48.094;7.970;2023-05-24T08:15:21;15.00;1.00
2409;DHT22;8463;48.094;7.970;2023-05-24T08:17:47;15.00;1.00
2409;DHT22;8463;48.094;7.970;2023-05-24T08:20:13;15.30;1.00
2409;DHT22;8463;48.094;7.970;2023-05-24T08:22:40;15.60;1.00
2409;DHT22;8463;48.094;7.970;2023-05-24T08:25:06;15.70;1.00
2409;DHT22;8463;48.094;7.970;2023-05-24T08:27:32;15.90;1.00
2409;DHT22;8463;48.094;7.970;2023-05-24T08:29:59;15.90;1.00
2409;DHT22;8463;48.094;7.970;2023-05-24T08:32:25;16.10;1.00
2409;DHT22;8463;48.094;7.970;2023-05-24T08:34:51;16.30;1.00
2409;DHT22;8463;48.094;7.970;2023-05-24T08:37:22;16.20;1.00
2409;DHT22;8463;48.094;7.970;2023-05-24T08:39:50;16.30;1.00
2409;DHT22;8463;48.094;7.970;2023-05-24T08:42:15;16.50;1.00
2409;DHT22;8463;48.094;7.970;2023-05-24T08:45:02;16.50;1.00
2409;DHT22;8463;48.094;7.970;2023-05-24T08:47:29;16.50;1.00
2409;DHT22;8463;48.094;7.970;2023-05-24T08:49:55;16.50;1.00
2409;DHT22;8463;48.094;7.970;2023-05-24T08:52:22;16.60;1.00
2409;DHT22;8463;48.094;7.970;2023-05-24T08:54:50;16.60;1.00
2409;DHT22;8463;48.094;7.970;2023-05-24T08:57:18;16.40;1.00
2409;DHT22;8463;48.094;7.970;2023-05-24T08:59:44;16.20;1.00
2409;DHT22;8463;48.094;7.970;2023-05-24T09:02:13;16.00;1.00
2409;DHT22;8463;48.094;7.970;2023-05-24T09:04:40;15.90;1.00
2409;DHT22;8463;48.094;7.970;2023-05-24T09:09:36;15.90;1.00
2409;DHT22;8463;48.094;7.970;2023-05-24T09:12:09;16.20;1.00
2409;DHT22;8463;48.094;7.970;2023-05-24T09:14:44;16.10;1.00
2409;DHT22;8463;48.094;7.970;2023-05-24T09:17:11;15.90;1.00
2409;DHT22;8463;48.094;7.970;2023-05-24T09:19:44;15.60;1.00
2409;DHT22;8463;48.094;7.970;2023-05-24T09:22:14;15.70;1.00
2409;DHT22;8463;48.094;7.970;2023-05-24T09:24:43;15.80;1.00
2409;DHT22;8463;48.094;7.970;2023-05-24T09:27:14;16.00;1.00
2409;DHT22;8463;48.094;7.970;2023-05-24T09:29:43;16.00;1.00
2409;DHT22;8463;48.094;7.970;2023-05-24T09:32:16;16.10;1.00
2409;DHT22;8463;48.094;7.970;2023-05-24T09:34:51;16.10;1.00
2409;DHT22;8463;48.094;7.970;2023-05-24T09:37:21;15.80;1.00
2409;DHT22;8463;48.094;7.970;2023-05-24T09:39:49;15.90;1.00
2409;DHT22;8463;48.094;7.970;2023-05-24T09:42:26;15.90;1.00
2409;DHT22;8463;48.094;7.970;2023-05-24T09:45:00;16.10;1.00
2409;DHT22;8463;48.094;7.970;2023-05-24T09:47:29;16.10;1.00
2409;DHT22;8463;48.094;7.970;2023-05-24T09:49:55;16.20;1.00
2409;DHT22;8463;48.094;7.970;2023-05-24T09:52:22;16.10;1.00
2409;DHT22;8463;48.094;7.970;2023-05-24T09:54:47;16.00;1.00
2409;DHT22;8463;48.094;7.970;2023-05-24T09:57:17;16.10;1.00
2409;DHT22;8463;48.094;7.970;2023-05-24T09:59:46;16.10;1.00
2409;DHT22;8463;48.094;7.970;2023-05-24T10:02:11;16.20;1.00
2409;DHT22;8463;48.094;7.970;2023-05-24T10:04:40;16.10;1.00
2409;DHT22;8463;48.094;7.970;2023-05-24T10:07:06;16.10;1.00
2409;DHT22;8463;48.094;7.970;2023-05-24T10:09:33;16.20;1.00
2409;DHT22;8463;48.094;7.970;2023-05-24T10:12:04;16.30;1.00
2409;DHT22;8463;48.094;7.970;2023-05-24T10:14:37;16.30;1.00
2409;DHT22;8463;48.094;7.970;2023-05-24T10:17:06;16.50;1.00
2409;DHT22;8463;48.094;7.970;2023-05-24T10:19:34;16.40;1.00
2409;DHT22;8463;48.094;7.970;2023-05-24T10:22:08;16.50;1.00
2409;DHT22;8463;48.094;7.970;2023-05-24T10:24:46;16.40;1.00
2409;DHT22;8463;48.094;7.970;2023-05-24T10:27:16;16.40;1.00
2409;DHT22;8463;48.094;7.970;2023-05-24T10:32:15;16.50;1.00
2409;DHT22;8463;48.094;7.970;2023-05-24T10:34:42;16.40;1.00
2409;DHT22;8463;48.094;7.970;2023-05-24T10:37:09;16.50;1.00
2409;DHT22;8463;48.094;7.970;2023-05-24T10:39:35;16.60;1.00
2409;DHT22;8463;48.094;7.970;2023-05-24T10:42:04;16.60;1.00
2409;DHT22;8463;48.094;7.970;2023-05-24T10:44:33;16.70;1.00
2409;DHT22;8463;48.094;7.970;2023-05-24T10:49:28;16.70;1.00
2409;DHT22;8463;48.094;7.970;2023-05-24T10:52:05;16.60;1.00
2409;DHT22;8463;48.094;7.970;2023-05-24T10:54:31;16.80;1.00
2409;DHT22;8463;48.094;7.970;2023-05-24T10:57:00;16.90;1.00
2409;DHT22;8463;48.094;7.970;2023-05-24T10:59:36;16.80;1.00
2409;DHT22;8463;48.094;7.970;2023-05-24T11:02:05;16.70;1.00
2409;DHT22;8463;48.094;7.970;2023-05-24T11:04:44;16.80;1.00
2409;DHT22;8463;48.094;7.970;2023-05-24T11:07:12;16.80;1.00
2409;DHT22;8463;48.094;7.970;2023-05-24T11:09:42;16.90;1.00
2409;DHT22;8463;48.094;7.970;2023-05-24T11:12:15;16.80;1.00
2409;DHT22;8463;48.094;7.970;2023-05-24T11:14:47;16.70;1.00
2409;DHT22;8463;48.094;7.970;2023-05-24T11:17:13;16.80;1.00
2409;DHT22;8463;48.094;7.970;2023-05-24T11:22:21;16.90;1.00
2409;DHT22;8463;48.094;7.970;2023-05-24T11:24:47;16.90;1.00
2409;DHT22;8463;48.094;7.970;2023-05-24T11:27:13;17.00;1.00
2409;DHT22;8463;48.094;7.970;2023-05-24T11:29:41;17.00;1.00
2409;DHT22;8463;48.094;7.970;2023-05-24T11:32:07;17.10;1.00
2409;DHT22;8463;48.094;7.970;2023-05-24T11:34:33;17.10;1.00
2409;DHT22;8463;48.094;7.970;2023-05-24T11:37:01;17.10;1.00
2409;DHT22;8463;48.094;7.970;2023-05-24T11:39:36;17.10;1.00
2409;DHT22;8463;48.094;7.970;2023-05-24T11:42:05;17.20;1.00
2409;DHT22;8463;48.094;7.970;2023-05-24T11:44:32;17.10;1.00
2409;DHT22;8463;48.094;7.970;2023-05-24T11:46:59;17.20;1.00
2409;DHT22;8463;48.094;7.970;2023-05-24T11:49:25;17.20;1.00
2409;DHT22;8463;48.094;7.970;2023-05-24T11:51:57;17.30;1.00
2409;DHT22;8463;48.094;7.970;2023-05-24T11:54:24;17.40;1.00
2409;DHT22;8463;48.094;7.970;2023-05-24T11:56:52;17.40;1.00
2409;DHT22;8463;48.094;7.970;2023-05-24T11:59:25;17.40;1.00
2409;DHT22;8463;48.094;7.970;2023-05-24T12:02:03;17.30;1.00
2409;DHT22;8463;48.094;7.970;2023-05-24T12:04:30;17.30;1.00
2409;DHT22;8463;48.094;7.970;2023-05-24T12:06:56;17.40;1.00
2409;DHT22;8463;48.094;7.970;2023-05-24T12:09:22;17.40;1.00
2409;DHT22;8463;48.094;7.970;2023-05-24T12:11:52;17.50;1.00
2409;DHT22;8463;48.094;7.970;2023-05-24T12:14:26;17.50;1.00
2409;DHT22;8463;48.094;7.970;2023-05-24T12:16:54;17.60;1.00
2409;DHT22;8463;48.094;7.970;2023-05-24T12:19:21;17.90;1.00
2409;DHT22;8463;48.094;7.970;2023-05-24T12:22:05;18.10;1.00
2409;DHT22;8463;48.094;7.970;2023-05-24T12:24:31;18.40;1.00
2409;DHT22;8463;48.094;7.970;2023-05-24T12:27:07;18.60;1.00
2409;DHT22;8463;48.094;7.970;2023-05-24T12:29:40;18.70;1.00
2409;DHT22;8463;48.094;7.970;2023-05-24T12:32:07;18.80;1.00
2409;DHT22;8463;48.094;7.970;2023-05-24T12:34:39;18.80;1.00
2409;DHT22;8463;48.094;7.970;2023-05-24T12:37:04;18.70;1.00
2409;DHT22;8463;48.094;7.970;2023-05-24T12:39:35;18.70;1.00
2409;DHT22;8463;48.094;7.970;2023-05-24T12:42:02;18.80;1.00
2409;DHT22;8463;48.094;7.970;2023-05-24T12:44:34;18.90;1.00
2409;DHT22;8463;48.094;7.970;2023-05-24T12:47:02;18.80;1.00
2409;DHT22;8463;48.094;7.970;2023-05-24T12:49:28;18.90;1.00
2409;DHT22;8463;48.094;7.970;2023-05-24T12:51:55;18.90;1.00
2409;DHT22;8463;48.094;7.970;2023-05-24T12:54:22;19.00;1.00
2409;DHT22;8463;48.094;7.970;2023-05-24T12:56:50;19.10;1.00
2409;DHT22;8463;48.094;7.970;2023-05-24T12:59:15;19.10;1.00
2409;DHT22;8463;48.094;7.970;2023-05-24T13:01:41;19.30;1.00
2409;DHT22;8463;48.094;7.970;2023-05-24T13:04:08;19.70;1.00
2409;DHT22;8463;48.094;7.970;2023-05-24T13:06:42;20.00;1.00
2409;DHT22;8463;48.094;7.970;2023-05-24T13:09:11;20.00;1.00
2409;DHT22;8463;48.094;7.970;2023-05-24T13:11:38;20.00;1.00
2409;DHT22;8463;48.094;7.970;2023-05-24T13:14:04;19.80;1.00
2409;DHT22;8463;48.094;7.970;2023-05-24T13:16:30;19.90;1.00
2409;DHT22;8463;48.094;7.970;2023-05-24T13:18:56;20.00;1.00
2409;DHT22;8463;48.094;7.970;2023-05-24T13:21:22;19.60;1.00
2409;DHT22;8463;48.094;7.970;2023-05-24T13:23:48;19.20;1.00
2409;DHT22;8463;48.094;7.970;2023-05-24T13:26:14;19.40;1.00
2409;DHT22;8463;48.094;7.970;2023-05-24T13:28:43;19.80;1.00
2409;DHT22;8463;48.094;7.970;2023-05-24T13:31:08;20.20;1.00
2409;DHT22;8463;48.094;7.970;2023-05-24T13:33:34;20.80;1.00
2409;DHT22;8463;48.094;7.970;2023-05-24T13:36:00;20.70;1.00
2409;DHT22;8463;48.094;7.970;2023-05-24T13:38:26;20.50;1.00
2409;DHT22;8463;48.094;7.970;2023-05-24T13:40:57;19.70;1.00
2409;DHT22;8463;48.094;7.970;2023-05-24T13:43:24;19.70;1.00
2409;DHT22;8463;48.094;7.970;2023-05-24T13:45:49;19.30;1.00
2409;DHT22;8463;48.094;7.970;2023-05-24T13:48:19;18.60;1.00
2409;DHT22;8463;48.094;7.970;2023-05-24T13:50:47;18.60;1.00
2409;DHT22;8463;48.094;7.970;2023-05-24T13:53:13;18.70;1.00
2409;DHT22;8463;48.094;7.970;2023-05-24T13:55:39;18.80;1.00
2409;DHT22;8463;48.094;7.970;2023-05-24T13:58:07;18.90;1.00
2409;DHT22;8463;48.094;7.970;2023-05-24T14:00:33;18.70;1.00
2409;DHT22;8463;48.094;7.970;2023-05-24T14:03:02;18.30;1.00
2409;DHT22;8463;48.094;7.970;2023-05-24T14:05:31;18.00;1.00
2409;DHT22;8463;48.094;7.970;2023-05-24T14:07:57;17.90;1.00
2409;DHT22;8463;48.094;7.970;2023-05-24T14:10:27;18.00;1.00
2409;DHT22;8463;48.094;7.970;2023-05-24T14:12:56;18.20;1.00
2409;DHT22;8463;48.094;7.970;2023-05-24T14:15:23;18.50;1.00
2409;DHT22;8463;48.094;7.970;2023-05-24T14:17:49;18.70;1.00
2409;DHT22;8463;48.094;7.970;2023-05-24T14:20:15;19.00;1.00
2409;DHT22;8463;48.094;7.970;2023-05-24T14:22:40;18.90;1.00
2409;DHT22;8463;48.094;7.970;2023-05-24T14:25:06;18.80;1.00
2409;DHT22;8463;48.094;7.970;2023-05-24T14:27:32;18.70;1.00
2409;DHT22;8463;48.094;7.970;2023-05-24T14:29:58;18.70;1.00
2409;DHT22;8463;48.094;7.970;2023-05-24T14:32:23;19.00;1.00
2409;DHT22;8463;48.094;7.970;2023-05-24T14:34:54;19.10;1.00
2409;DHT22;8463;48.094;7.970;2023-05-24T14:37:20;19.20;1.00
2409;DHT22;8463;48.094;7.970;2023-05-24T14:39:45;19.30;1.00
2409;DHT22;8463;48.094;7.970;2023-05-24T14:42:14;19.30;1.00
2409;DHT22;8463;48.094;7.970;2023-05-24T14:44:40;19.50;1.00
2409;DHT22;8463;48.094;7.970;2023-05-24T14:47:05;19.80;1.00
2409;DHT22;8463;48.094;7.970;2023-05-24T14:49:34;20.10;1.00
2409;DHT22;8463;48.094;7.970;2023-05-24T14:52:01;19.90;1.00
2409;DHT22;8463;48.094;7.970;2023-05-24T14:54:27;19.80;1.00
2409;DHT22;8463;48.094;7.970;2023-05-24T14:56:53;20.10;1.00
2409;DHT22;8463;48.094;7.970;2023-05-24T14:59:25;20.60;1.00
2409;DHT22;8463;48.094;7.970;2023-05-24T15:01:51;21.10;1.00
2409;DHT22;8463;48.094;7.970;2023-05-24T15:04:16;21.10;1.00
2409;DHT22;8463;48.094;7.970;2023-05-24T15:06:42;21.20;1.00
2409;DHT22;8463;48.094;7.970;2023-05-24T15:09:11;21.30;1.00
2409;DHT22;8463;48.094;7.970;2023-05-24T15:11:40;21.20;1.00
2409;DHT22;8463;48.094;7.970;2023-05-24T15:14:05;21.00;1.00
2409;DHT22;8463;48.094;7.970;2023-05-24T15:16:31;20.80;1.00
2409;DHT22;8463;48.094;7.970;2023-05-24T15:18:59;20.40;1.00
2409;DHT22;8463;48.094;7.970;2023-05-24T15:21:25;20.10;1.00
2409;DHT22;8463;48.094;7.970;2023-05-24T15:23:51;19.90;1.00
2409;DHT22;8463;48.094;7.970;2023-05-24T15:26:16;19.80;1.00
2409;DHT22;8463;48.094;7.970;2023-05-24T15:28:43;19.70;1.00
2409;DHT22;8463;48.094;7.970;2023-05-24T15:31:09;19.70;1.00
2409;DHT22;8463;48.094;7.970;2023-05-24T15:33:36;19.70;1.00
2409;DHT22;8463;48.094;7.970;2023-05-24T15:36:02;19.80;1.00
2409;DHT22;8463;48.094;7.970;2023-05-24T15:38:28;19.90;1.00
2409;DHT22;8463;48.094;7.970;2023-05-24T15:40:58;20.20;1.00
2409;DHT22;8463;48.094;7.970;2023-05-24T15:43:23;20.50;1.00
2409;DHT22;8463;48.094;7.970;2023-05-24T15:45:55;20.50;1.00
2409;DHT22;8463;48.094;7.970;2023-05-24T15:48:21;20.60;1.00
2409;DHT22;8463;48.094;7.970;2023-05-24T15:50:50;20.50;1.00
2409;DHT22;8463;48.094;7.970;2023-05-24T15:53:15;20.50;1.00
2409;DHT22;8463;48.094;7.970;2023-05-24T15:55:41;20.50;1.00
2409;DHT22;8463;48.094;7.970;2023-05-24T15:58:12;20.60;1.00
2409;DHT22;8463;48.094;7.970;2023-05-24T16:00:38;20.90;1.00
2409;DHT22;8463;48.094;7.970;2023-05-24T16:03:03;20.90;1.00
2409;DHT22;8463;48.094;7.970;2023-05-24T16:05:29;21.10;1.00
2409;DHT22;8463;48.094;7.970;2023-05-24T16:07:55;21.20;1.00
2409;DHT22;8463;48.094;7.970;2023-05-24T16:10:20;21.10;1.00
2409;DHT22;8463;48.094;7.970;2023-05-24T16:12:46;20.90;1.00
2409;DHT22;8463;48.094;7.970;2023-05-24T16:15:17;20.80;1.00
2409;DHT22;8463;48.094;7.970;2023-05-24T16:17:43;20.70;1.00
2409;DHT22;8463;48.094;7.970;2023-05-24T16:20:10;20.80;1.00
2409;DHT22;8463;48.094;7.970;2023-05-24T16:22:36;20.90;1.00
2409;DHT22;8463;48.094;7.970;2023-05-24T16:25:04;20.80;1.00
2409;DHT22;8463;48.094;7.970;2023-05-24T16:27:30;20.70;1.00
2409;DHT22;8463;48.094;7.970;2023-05-24T16:29:55;20.50;1.00
2409;DHT22;8463;48.094;7.970;2023-05-24T16:32:23;20.40;1.00
2409;DHT22;8463;48.094;7.970;2023-05-24T16:34:52;20.40;1.00